createdAt,value
2018-03-15T00:02:27.599Z,3.10
2018-03-15T00:04:54.773Z,3.00
2018-03-15T00:07:21.193Z,3.00
2018-03-15T00:09:47.606Z,3.00
2018-03-15T00:12:14.007Z,3.00
2018-03-15T00:14:40.430Z,3.00
2018-03-15T00:17:06.836Z,3.00
2018-03-15T00:19:33.248Z,3.00
2018-03-15T00:21:59.643Z,3.00
2018-03-15T00:24:26.536Z,3.00
2018-03-15T00:26:54.062Z,3.10
2018-03-15T00:29:20.485Z,3.10
2018-03-15T00:31:46.935Z,3.10
2018-03-15T00:34:14.071Z,3.10
2018-03-15T00:36:40.501Z,3.00
2018-03-15T00:39:06.918Z,3.00
2018-03-15T00:41:34.817Z,2.90
2018-03-15T00:44:01.982Z,2.90
2018-03-15T00:46:28.372Z,2.90
2018-03-15T00:48:54.753Z,2.90
2018-03-15T00:51:21.171Z,2.90
2018-03-15T00:53:47.703Z,2.90
2018-03-15T00:56:14.101Z,2.80
2018-03-15T00:58:40.526Z,2.80
2018-03-15T01:01:07.154Z,2.80
2018-03-15T01:03:34.350Z,2.90
2018-03-15T01:06:00.781Z,2.90
2018-03-15T01:08:27.187Z,2.90
2018-03-15T01:10:53.583Z,2.90
2018-03-15T01:13:20.759Z,3.00
2018-03-15T01:15:47.173Z,3.00
2018-03-15T01:18:13.572Z,3.00
2018-03-15T01:20:40.734Z,2.90
2018-03-15T01:23:07.147Z,2.90
2018-03-15T01:25:33.534Z,2.80
2018-03-15T01:28:00.710Z,2.70
2018-03-15T01:30:27.115Z,2.70
2018-03-15T01:32:53.555Z,2.70
2018-03-15T01:35:19.987Z,2.70
2018-03-15T01:37:46.469Z,2.70
2018-03-15T01:40:13.662Z,2.70
2018-03-15T01:42:40.108Z,2.70
2018-03-15T01:45:06.554Z,2.70
2018-03-15T01:47:33.726Z,2.70
2018-03-15T01:50:00.874Z,2.70
2018-03-15T01:52:27.312Z,2.70
2018-03-15T01:54:53.813Z,2.70
2018-03-15T01:57:20.965Z,2.70
2018-03-15T01:59:47.383Z,2.60
2018-03-15T02:02:13.895Z,2.60
2018-03-15T02:04:41.046Z,2.50
2018-03-15T02:07:07.460Z,2.50
2018-03-15T02:09:34.021Z,2.40
2018-03-15T02:12:00.434Z,2.40
2018-03-15T02:14:27.716Z,2.50
2018-03-15T02:16:54.767Z,2.40
2018-03-15T02:19:22.056Z,2.40
2018-03-15T02:21:49.330Z,2.30
2018-03-15T02:24:16.475Z,2.30
2018-03-15T02:26:42.899Z,2.30
2018-03-15T02:29:09.310Z,2.20
2018-03-15T02:31:36.488Z,2.10
2018-03-15T02:34:02.959Z,2.10
2018-03-15T02:36:29.371Z,2.10
2018-03-15T02:38:56.509Z,2.00
2018-03-15T02:41:22.907Z,1.90
2018-03-15T02:43:50.111Z,1.90
2018-03-15T02:46:16.546Z,1.80
2018-03-15T02:48:43.698Z,1.80
2018-03-15T02:51:10.144Z,1.80
2018-03-15T02:53:36.545Z,1.70
2018-03-15T02:56:03.094Z,1.60
2018-03-15T02:58:30.271Z,1.60
2018-03-15T03:00:56.692Z,1.60
2018-03-15T03:03:23.105Z,1.60
2018-03-15T03:05:49.525Z,1.50
2018-03-15T03:08:15.968Z,1.50
2018-03-15T03:10:42.382Z,1.40
2018-03-15T03:13:08.807Z,1.40
2018-03-15T03:17:15.796Z,1.30
2018-03-15T03:19:42.220Z,1.20
2018-03-15T03:22:08.649Z,1.20
2018-03-15T03:24:35.063Z,1.20
2018-03-15T03:27:01.512Z,1.20
2018-03-15T03:29:28.679Z,1.10
2018-03-15T03:31:55.847Z,1.10
2018-03-15T03:34:23.130Z,1.10
2018-03-15T03:36:50.303Z,1.10
2018-03-15T03:39:17.582Z,1.10
2018-03-15T03:41:44.030Z,1.10
2018-03-15T03:44:11.203Z,1.10
2018-03-15T03:46:38.486Z,1.10
2018-03-15T03:49:05.648Z,1.10
2018-03-15T03:51:32.824Z,1.00
2018-03-15T03:53:59.263Z,1.00
2018-03-15T03:56:26.404Z,0.90
2018-03-15T03:58:52.821Z,0.90
2018-03-15T04:01:19.237Z,0.90
2018-03-15T04:03:45.663Z,0.90
2018-03-15T04:06:12.087Z,0.90
2018-03-15T04:08:38.502Z,0.80
2018-03-15T04:11:05.013Z,0.80
2018-03-15T04:13:31.416Z,0.80
2018-03-15T04:15:57.866Z,0.80
2018-03-15T04:18:24.300Z,0.80
2018-03-15T04:20:50.756Z,0.80
2018-03-15T04:23:17.200Z,0.80
2018-03-15T04:25:43.618Z,0.80
2018-03-15T04:28:10.745Z,0.70
2018-03-15T04:30:37.194Z,0.70
2018-03-15T04:33:03.662Z,0.70
2018-03-15T04:35:30.075Z,0.70
2018-03-15T04:37:56.471Z,0.70
2018-03-15T04:40:22.898Z,0.70
2018-03-15T04:42:49.328Z,0.70
2018-03-15T04:45:16.473Z,0.70
2018-03-15T04:47:42.956Z,0.70
2018-03-15T04:50:10.125Z,0.70
2018-03-15T04:52:37.406Z,0.70
2018-03-15T04:55:04.590Z,0.70
2018-03-15T04:57:31.521Z,0.60
2018-03-15T04:59:58.674Z,0.70
2018-03-15T05:02:25.281Z,0.60
2018-03-15T05:04:52.466Z,0.60
2018-03-15T05:07:18.926Z,0.60
2018-03-15T05:09:46.103Z,0.70
2018-03-15T05:12:12.596Z,0.60
2018-03-15T05:14:39.013Z,0.60
2018-03-15T05:17:05.415Z,0.60
2018-03-15T05:19:31.828Z,0.60
2018-03-15T05:21:58.358Z,0.60
2018-03-15T05:24:25.632Z,0.60
2018-03-15T05:26:52.818Z,0.60
2018-03-15T05:29:19.230Z,0.60
2018-03-15T05:31:45.647Z,0.60
2018-03-15T05:34:12.075Z,0.60
2018-03-15T05:37:23.704Z,0.60
2018-03-15T05:39:50.189Z,0.60
2018-03-15T05:42:17.341Z,0.60
2018-03-15T05:44:44.507Z,0.70
2018-03-15T05:47:10.944Z,0.70
2018-03-15T05:49:37.366Z,0.70
2018-03-15T05:52:03.818Z,0.70
2018-03-15T05:54:30.259Z,0.80
2018-03-15T05:56:56.687Z,0.80
2018-03-15T05:59:23.086Z,0.90
2018-03-15T06:01:49.478Z,0.90
2018-03-15T06:04:15.888Z,1.00
2018-03-15T06:06:42.372Z,1.10
2018-03-15T06:09:09.258Z,1.20
2018-03-15T06:11:35.815Z,1.20
2018-03-15T06:14:03.118Z,1.40
2018-03-15T06:16:30.296Z,1.50
2018-03-15T06:18:57.453Z,1.60
2018-03-15T06:21:25.371Z,1.70
2018-03-15T06:23:51.788Z,1.70
2018-03-15T06:26:18.204Z,1.70
2018-03-15T06:28:44.633Z,1.90
2018-03-15T06:31:11.791Z,2.00
2018-03-15T06:33:39.012Z,2.10
2018-03-15T06:36:05.456Z,2.10
2018-03-15T06:38:31.887Z,2.20
2018-03-15T06:40:59.043Z,2.40
2018-03-15T06:43:26.239Z,2.60
2018-03-15T06:45:53.416Z,2.70
2018-03-15T06:48:19.833Z,2.70
2018-03-15T06:50:46.287Z,2.90
2018-03-15T06:53:12.712Z,3.00
2018-03-15T06:55:39.230Z,3.10
2018-03-15T06:58:06.408Z,3.30
2018-03-15T07:00:32.961Z,3.30
2018-03-15T07:02:59.399Z,3.30
2018-03-15T07:05:25.879Z,3.40
2018-03-15T07:07:52.276Z,3.40
2018-03-15T07:10:18.793Z,3.50
2018-03-15T07:12:45.268Z,3.50
2018-03-15T07:15:11.704Z,3.50
2018-03-15T07:17:38.136Z,3.70
2018-03-15T07:20:05.358Z,4.20
2018-03-15T07:22:31.783Z,4.20
2018-03-15T07:24:58.951Z,4.40
2018-03-15T07:27:26.159Z,4.30
2018-03-15T07:29:52.565Z,4.30
2018-03-15T07:32:18.961Z,4.20
2018-03-15T07:34:45.496Z,4.20
2018-03-15T07:37:12.728Z,4.00
2018-03-15T07:39:40.149Z,4.00
2018-03-15T07:42:07.313Z,3.90
2018-03-15T07:44:34.471Z,4.00
2018-03-15T07:47:00.932Z,4.00
2018-03-15T07:49:28.104Z,4.10
2018-03-15T07:51:55.252Z,4.20
2018-03-15T07:54:23.284Z,4.20
2018-03-15T07:56:49.690Z,4.20
2018-03-15T07:59:16.070Z,4.20
2018-03-15T08:01:42.485Z,4.20
2018-03-15T08:04:08.887Z,4.40
2018-03-15T08:06:36.055Z,4.50
2018-03-15T08:09:02.755Z,4.50
2018-03-15T08:11:29.167Z,4.70
2018-03-15T08:13:56.469Z,5.10
2018-03-15T08:16:22.924Z,5.00
2018-03-15T08:18:50.758Z,4.90
2018-03-15T08:21:17.212Z,4.90
2018-03-15T08:23:43.652Z,4.90
2018-03-15T08:26:11.085Z,5.40
2018-03-15T08:28:38.259Z,6.10
2018-03-15T08:31:05.652Z,6.20
2018-03-15T08:33:32.117Z,6.20
2018-03-15T08:35:58.575Z,7.00
2018-03-15T08:38:25.045Z,7.30
2018-03-15T08:40:51.492Z,7.70
2018-03-15T08:43:17.912Z,7.40
2018-03-15T08:45:44.391Z,6.80
2018-03-15T08:48:10.886Z,6.40
2018-03-15T08:50:37.403Z,6.20
2018-03-15T08:53:04.631Z,5.90
2018-03-15T08:55:31.066Z,5.90
2018-03-15T08:57:57.506Z,6.50
2018-03-15T09:00:23.943Z,6.50
2018-03-15T09:02:51.140Z,6.00
2018-03-15T09:05:17.564Z,5.90
2018-03-15T09:07:44.739Z,6.00
2018-03-15T09:10:12.017Z,5.80
2018-03-15T09:12:39.168Z,5.60
2018-03-15T09:15:05.591Z,5.50
2018-03-15T09:17:32.032Z,5.40
2018-03-15T09:19:58.468Z,5.50
2018-03-15T09:22:24.940Z,5.90
2018-03-15T09:24:51.428Z,6.10
2018-03-15T09:27:17.913Z,6.20
2018-03-15T09:29:45.070Z,5.80
2018-03-15T09:32:12.247Z,5.60
2018-03-15T09:34:39.439Z,5.50
2018-03-15T09:37:05.953Z,5.50
2018-03-15T09:39:32.416Z,5.50
2018-03-15T09:41:59.627Z,5.70
2018-03-15T09:44:26.070Z,5.70
2018-03-15T09:46:52.519Z,5.60
2018-03-15T09:49:19.734Z,5.70
2018-03-15T09:51:46.787Z,5.70
2018-03-15T09:54:13.251Z,5.70
2018-03-15T09:56:39.680Z,5.80
2018-03-15T09:59:06.124Z,5.80
2018-03-15T10:01:33.249Z,6.20
2018-03-15T10:03:59.705Z,6.20
2018-03-15T10:06:26.158Z,6.40
2018-03-15T10:08:52.578Z,6.70
2018-03-15T10:11:19.034Z,6.90
2018-03-15T10:13:46.215Z,7.00
2018-03-15T10:16:12.682Z,7.00
2018-03-15T10:18:39.121Z,7.10
2018-03-15T10:21:05.574Z,7.10
2018-03-15T10:23:32.155Z,7.20
2018-03-15T10:25:58.618Z,7.30
2018-03-15T10:28:25.085Z,7.30
2018-03-15T10:30:51.999Z,7.30
2018-03-15T10:33:25.170Z,7.50
2018-03-15T10:35:51.631Z,7.40
2018-03-15T10:38:20.081Z,7.90
2018-03-15T10:40:46.515Z,7.90
2018-03-15T10:43:13.693Z,7.80
2018-03-15T10:45:40.877Z,7.70
2018-03-15T10:48:07.279Z,7.70
2018-03-15T10:50:33.748Z,7.50
2018-03-15T10:53:00.262Z,7.50
2018-03-15T10:55:26.723Z,7.50
2018-03-15T10:57:53.205Z,7.40
2018-03-15T11:00:25.625Z,7.30
2018-03-15T11:02:52.689Z,7.30
2018-03-15T11:05:25.282Z,7.30
2018-03-15T11:08:11.454Z,7.30
2018-03-15T11:10:37.924Z,7.30
2018-03-15T11:13:04.447Z,7.40
2018-03-15T11:15:30.994Z,7.40
2018-03-15T11:17:57.443Z,7.40
2018-03-15T11:20:23.841Z,7.40
2018-03-15T11:22:50.281Z,7.40
2018-03-15T11:25:16.741Z,7.30
2018-03-15T11:27:43.278Z,7.10
2018-03-15T11:30:10.554Z,7.10
2018-03-15T11:32:37.014Z,7.10
2018-03-15T11:35:03.566Z,7.00
2018-03-15T11:37:30.050Z,6.90
2018-03-15T11:39:56.478Z,6.90
2018-03-15T11:42:22.945Z,7.00
2018-03-15T11:44:49.390Z,7.00
2018-03-15T11:47:15.851Z,7.00
2018-03-15T11:49:42.922Z,7.00
2018-03-15T11:52:10.136Z,7.10
2018-03-15T11:54:36.582Z,7.10
2018-03-15T11:57:03.022Z,7.30
2018-03-15T11:59:30.217Z,7.60
2018-03-15T12:01:58.151Z,7.60
2018-03-15T12:04:24.724Z,7.60
2018-03-15T12:06:51.149Z,7.60
2018-03-15T12:09:18.333Z,7.30
2018-03-15T12:11:45.540Z,7.30
2018-03-15T12:14:12.146Z,7.40
2018-03-15T12:16:38.626Z,7.50
2018-03-15T12:19:05.772Z,7.60
2018-03-15T12:21:32.195Z,7.50
2018-03-15T12:23:58.619Z,7.40
2018-03-15T12:26:25.123Z,7.20
2018-03-15T12:28:51.637Z,7.10
2018-03-15T12:31:18.844Z,7.00
2018-03-15T12:33:45.369Z,6.90
2018-03-15T12:36:12.634Z,7.00
2018-03-15T12:38:39.772Z,7.20
2018-03-15T12:41:06.270Z,7.20
2018-03-15T12:43:33.402Z,7.60
2018-03-15T12:45:59.837Z,7.60
2018-03-15T12:48:26.285Z,7.80
2018-03-15T12:50:52.897Z,7.90
2018-03-15T12:53:19.316Z,8.00
2018-03-15T12:55:45.830Z,8.10
2018-03-15T12:58:12.246Z,8.20
2018-03-15T13:00:38.660Z,8.20
2018-03-15T13:03:05.071Z,8.30
2018-03-15T13:05:31.467Z,8.30
2018-03-15T13:07:57.920Z,8.40
2018-03-15T13:10:24.371Z,8.50
2018-03-15T13:12:50.804Z,8.40
2018-03-15T13:15:18.092Z,8.10
2018-03-15T13:17:45.264Z,8.00
2018-03-15T13:20:11.718Z,8.00
2018-03-15T13:22:38.897Z,7.70
2018-03-15T13:25:05.353Z,7.70
2018-03-15T13:27:31.813Z,7.70
2018-03-15T13:29:58.258Z,7.70
2018-03-15T13:32:24.718Z,7.60
2018-03-15T13:34:51.960Z,7.50
2018-03-15T13:37:18.349Z,7.50
2018-03-15T13:39:44.772Z,7.50
2018-03-15T13:42:11.260Z,7.60
2018-03-15T13:44:37.676Z,7.70
2018-03-15T13:47:04.318Z,7.80
2018-03-15T13:49:30.748Z,7.90
2018-03-15T13:51:57.215Z,8.00
2018-03-15T13:54:24.333Z,8.00
2018-03-15T13:56:50.915Z,8.00
2018-03-15T13:59:18.090Z,7.90
2018-03-15T14:01:44.531Z,7.90
2018-03-15T14:04:11.784Z,8.00
2018-03-15T14:06:38.196Z,8.00
2018-03-15T14:09:04.712Z,8.10
2018-03-15T14:11:31.124Z,8.10
2018-03-15T14:13:57.557Z,8.10
2018-03-15T14:16:24.001Z,8.10
2018-03-15T14:18:50.475Z,8.10
2018-03-15T14:21:16.898Z,8.10
2018-03-15T14:23:44.083Z,8.00
2018-03-15T14:26:11.280Z,8.00
2018-03-15T14:28:37.664Z,8.00
2018-03-15T14:31:04.093Z,8.00
2018-03-15T14:33:30.512Z,7.90
2018-03-15T14:35:57.698Z,8.00
2018-03-15T14:38:24.149Z,7.90
2018-03-15T14:40:51.936Z,7.90
2018-03-15T14:43:19.143Z,8.00
2018-03-15T14:45:45.665Z,7.90
2018-03-15T14:48:12.837Z,8.00
2018-03-15T14:50:39.798Z,7.90
2018-03-15T14:53:06.971Z,8.00
2018-03-15T14:55:34.088Z,8.10
2018-03-15T14:58:00.504Z,8.10
2018-03-15T15:00:27.675Z,8.20
2018-03-15T15:02:54.889Z,8.20
2018-03-15T15:05:21.409Z,8.20
2018-03-15T15:07:48.549Z,8.20
2018-03-15T15:10:14.963Z,8.20
2018-03-15T15:12:41.384Z,8.20
2018-03-15T15:15:08.550Z,8.30
2018-03-15T15:17:35.723Z,8.30
2018-03-15T15:20:02.970Z,8.30
2018-03-15T15:22:29.397Z,8.30
2018-03-15T15:24:55.841Z,8.20
2018-03-15T15:27:22.299Z,8.20
2018-03-15T15:29:50.244Z,8.10
2018-03-15T15:32:16.716Z,8.10
2018-03-15T15:34:43.948Z,7.90
2018-03-15T15:37:10.404Z,7.90
2018-03-15T15:39:36.858Z,7.90
2018-03-15T15:42:03.323Z,7.80
2018-03-15T15:44:29.741Z,7.80
2018-03-15T15:46:56.345Z,7.70
2018-03-15T15:49:22.812Z,7.70
2018-03-15T15:51:49.233Z,7.60
2018-03-15T15:54:15.700Z,7.50
2018-03-15T15:56:42.140Z,7.40
2018-03-15T15:59:08.662Z,7.30
2018-03-15T16:01:36.265Z,7.20
2018-03-15T16:04:02.896Z,7.20
2018-03-15T16:06:30.087Z,7.00
2018-03-15T16:08:56.635Z,7.00
2018-03-15T16:11:23.840Z,6.90
2018-03-15T16:13:50.370Z,6.90
2018-03-15T16:16:16.840Z,6.80
2018-03-15T16:18:43.277Z,6.80
2018-03-15T16:21:10.484Z,6.70
2018-03-15T16:23:36.875Z,6.70
2018-03-15T16:26:03.464Z,6.70
2018-03-15T16:28:30.845Z,6.50
2018-03-15T16:30:57.401Z,6.50
2018-03-15T16:33:24.674Z,6.50
2018-03-15T16:35:51.927Z,6.40
2018-03-15T16:38:18.422Z,6.40
2018-03-15T16:40:46.072Z,6.30
2018-03-15T16:43:13.407Z,6.20
2018-03-15T16:45:41.008Z,6.20
2018-03-15T16:48:07.723Z,6.10
2018-03-15T16:50:34.276Z,6.10
2018-03-15T16:53:00.811Z,6.00
2018-03-15T16:55:28.017Z,5.90
2018-03-15T16:57:54.502Z,5.80
2018-03-15T17:00:21.014Z,5.80
2018-03-15T17:02:48.184Z,5.70
2018-03-15T17:05:15.360Z,5.60
2018-03-15T17:07:42.580Z,5.60
2018-03-15T17:10:09.033Z,5.60
2018-03-15T17:12:37.338Z,5.60
2018-03-15T17:15:05.171Z,5.50
2018-03-15T17:17:32.472Z,5.40
2018-03-15T17:19:58.861Z,5.40
2018-03-15T17:22:25.330Z,5.40
2018-03-15T17:24:52.570Z,5.40
2018-03-15T17:27:19.088Z,5.40
2018-03-15T17:29:45.555Z,5.40
2018-03-15T17:32:12.102Z,5.30
2018-03-15T17:34:39.281Z,5.30
2018-03-15T17:37:05.769Z,5.30
2018-03-15T17:39:32.249Z,5.30
2018-03-15T17:41:58.746Z,5.20
2018-03-15T17:44:25.204Z,5.20
2018-03-15T17:46:52.357Z,5.10
2018-03-15T17:49:18.792Z,5.10
2018-03-15T17:51:45.262Z,5.10
2018-03-15T17:54:12.564Z,5.00
2018-03-15T17:56:39.755Z,5.00
2018-03-15T17:59:06.215Z,5.00
2018-03-15T18:01:32.645Z,5.00
2018-03-15T18:03:59.892Z,5.00
2018-03-15T18:06:26.432Z,4.90
2018-03-15T18:08:52.908Z,4.90
2018-03-15T18:11:19.338Z,4.90
2018-03-15T18:13:45.742Z,4.90
2018-03-15T18:16:13.125Z,4.80
2018-03-15T18:18:39.573Z,4.80
2018-03-15T18:21:06.760Z,4.80
2018-03-15T18:23:33.982Z,4.80
2018-03-15T18:26:00.653Z,4.80
2018-03-15T18:28:27.100Z,4.80
2018-03-15T18:30:53.804Z,4.80
2018-03-15T18:33:20.297Z,4.80
2018-03-15T18:35:46.763Z,4.80
2018-03-15T18:38:13.276Z,4.80
2018-03-15T18:40:40.475Z,4.80
2018-03-15T18:43:07.003Z,4.80
2018-03-15T18:45:34.244Z,4.80
2018-03-15T18:48:01.962Z,4.80
2018-03-15T18:50:28.400Z,4.80
2018-03-15T18:52:55.296Z,4.80
2018-03-15T18:55:21.749Z,4.80
2018-03-15T18:57:48.260Z,4.80
2018-03-15T19:00:14.691Z,4.80
2018-03-15T19:02:41.090Z,4.80
2018-03-15T19:05:08.384Z,4.80
2018-03-15T19:07:34.943Z,4.80
2018-03-15T19:10:02.292Z,4.90
2018-03-15T19:12:29.594Z,4.80
2018-03-15T19:14:56.056Z,4.90
2018-03-15T19:17:22.500Z,4.80
2018-03-15T19:19:49.677Z,4.80
2018-03-15T19:22:16.863Z,4.80
2018-03-15T19:24:43.337Z,4.80
2018-03-15T19:27:10.891Z,4.90
2018-03-15T19:29:37.319Z,4.90
2018-03-15T19:32:04.111Z,4.90
2018-03-15T19:34:30.574Z,4.90
2018-03-15T19:36:57.124Z,4.90
2018-03-15T19:39:23.682Z,4.90
2018-03-15T19:41:50.547Z,4.90
2018-03-15T19:44:17.683Z,4.90
2018-03-15T19:46:44.101Z,4.90
2018-03-15T19:49:10.639Z,4.90
2018-03-15T19:51:37.287Z,4.90
2018-03-15T19:54:04.476Z,5.00
2018-03-15T19:56:30.912Z,5.00
2018-03-15T19:58:57.370Z,5.00
2018-03-15T20:01:24.545Z,5.00
2018-03-15T20:03:51.727Z,5.00
2018-03-15T20:06:18.225Z,5.00
2018-03-15T20:08:44.701Z,4.90
2018-03-15T20:11:11.149Z,4.90
2018-03-15T20:13:37.576Z,4.90
2018-03-15T20:16:04.154Z,4.90
2018-03-15T20:18:30.603Z,4.90
2018-03-15T20:20:57.029Z,4.90
2018-03-15T20:23:29.510Z,4.80
2018-03-15T20:25:56.033Z,4.80
2018-03-15T20:28:28.629Z,4.80
2018-03-15T20:30:55.096Z,4.80
2018-03-15T20:33:27.734Z,4.80
2018-03-15T20:35:54.175Z,4.80
2018-03-15T20:38:20.724Z,4.80
2018-03-15T20:40:54.050Z,4.80
2018-03-15T20:43:21.191Z,4.80
2018-03-15T20:45:54.347Z,4.80
2018-03-15T20:48:26.811Z,4.80
2018-03-15T20:50:53.359Z,4.80
2018-03-15T20:53:22.762Z,4.70
2018-03-15T20:55:49.340Z,4.70
2018-03-15T20:58:15.822Z,4.80
2018-03-15T21:00:42.310Z,4.80
2018-03-15T21:03:08.794Z,4.80
2018-03-15T21:05:36.048Z,4.70
2018-03-15T21:08:06.531Z,4.70
2018-03-15T21:10:33.601Z,4.70
2018-03-15T21:13:00.156Z,4.70
2018-03-15T21:15:27.431Z,4.70
2018-03-15T21:17:56.503Z,4.70
2018-03-15T21:20:23.822Z,4.70
2018-03-15T21:22:51.200Z,4.60
2018-03-15T21:25:18.475Z,4.70
2018-03-15T21:27:47.388Z,4.70
2018-03-15T21:30:15.377Z,4.60
2018-03-15T21:32:42.857Z,4.60
2018-03-15T21:35:11.384Z,4.60
2018-03-15T21:37:38.629Z,4.60
2018-03-15T21:40:05.293Z,4.60
2018-03-15T21:42:33.298Z,4.60
2018-03-15T21:44:59.749Z,4.60
2018-03-15T21:47:26.296Z,4.60
2018-03-15T21:49:55.701Z,4.60
2018-03-15T21:52:22.894Z,4.60
2018-03-15T21:54:49.993Z,4.60
2018-03-15T21:57:16.520Z,4.60
2018-03-15T21:59:43.078Z,4.60
2018-03-15T22:02:10.556Z,4.50
2018-03-15T22:04:37.121Z,4.50
2018-03-15T22:07:03.602Z,4.50
2018-03-15T22:09:30.134Z,4.50
2018-03-15T22:11:56.689Z,4.50
2018-03-15T22:14:23.140Z,4.40
2018-03-15T22:16:50.328Z,4.40
2018-03-15T22:19:16.795Z,4.40
2018-03-15T22:21:43.231Z,4.40
2018-03-15T22:24:10.377Z,4.30
2018-03-15T22:26:36.776Z,4.30
2018-03-15T22:29:03.186Z,4.30
2018-03-15T22:31:29.614Z,4.30
2018-03-15T22:33:56.078Z,4.30
2018-03-15T22:36:22.521Z,4.30
2018-03-15T22:38:48.960Z,4.30
2018-03-15T22:41:15.491Z,4.30
2018-03-15T22:43:42.635Z,4.40
2018-03-15T22:46:09.354Z,4.40
2018-03-15T22:48:35.782Z,4.40
2018-03-15T22:51:03.058Z,4.50
2018-03-15T22:53:30.334Z,4.60
2018-03-15T22:55:57.503Z,4.70
2018-03-15T22:58:24.671Z,4.70
2018-03-15T23:00:55.839Z,4.70
2018-03-15T23:03:22.238Z,4.70
2018-03-15T23:05:48.727Z,4.80
2018-03-15T23:08:15.188Z,4.80
2018-03-15T23:10:42.413Z,4.90
2018-03-15T23:13:08.855Z,4.90
2018-03-15T23:15:35.260Z,4.90
2018-03-15T23:18:01.693Z,4.90
2018-03-15T23:20:28.632Z,4.90
2018-03-15T23:22:55.084Z,5.00
2018-03-15T23:25:21.527Z,5.00
2018-03-15T23:27:47.982Z,5.00
2018-03-15T23:30:15.154Z,5.00
2018-03-15T23:32:42.313Z,5.00
2018-03-15T23:35:09.467Z,4.90
2018-03-15T23:37:36.656Z,4.90
2018-03-15T23:40:03.819Z,4.90
2018-03-15T23:42:30.272Z,4.90
2018-03-15T23:44:56.699Z,4.90
2018-03-15T23:47:23.214Z,4.90
2018-03-15T23:49:49.698Z,4.90
2018-03-15T23:52:16.126Z,4.80
2018-03-15T23:54:43.129Z,4.80
2018-03-15T23:57:09.650Z,4.80
2018-03-15T23:59:36.816Z,4.80
